createdAt,value
2023-04-16T00:00:49.055Z,9.668043
2023-04-16T00:01:48.418Z,9.668022
2023-04-16T00:02:48.327Z,9.668015
2023-04-16T00:03:48.664Z,9.668031
2023-04-16T00:04:48.591Z,9.668008
2023-04-16T00:05:48.257Z,9.668015
2023-04-16T00:06:48.228Z,9.668028
2023-04-16T00:07:48.188Z,9.668040
2023-04-16T00:08:48.171Z,9.667990
2023-04-16T00:09:48.145Z,9.668006
2023-04-16T00:10:48.139Z,9.668047
2023-04-16T00:11:48.180Z,9.668017
2023-04-16T00:12:48.123Z,9.668020
2023-04-16T00:13:48.141Z,9.668024
2023-04-16T00:14:48.145Z,9.668038
2023-04-16T00:15:48.103Z,9.668043
2023-04-16T00:16:48.170Z,9.668032
2023-04-16T00:17:48.147Z,9.667979
2023-04-16T00:18:48.093Z,9.667981
2023-04-16T00:19:48.069Z,9.668002
2023-04-16T00:20:48.064Z,9.667980
2023-04-16T00:21:48.080Z,9.667968
2023-04-16T00:22:48.040Z,9.668048
2023-04-16T00:23:48.042Z,9.667989
2023-04-16T00:24:48.035Z,9.667994
2023-04-16T00:25:48.050Z,9.667953
2023-04-16T00:26:48.017Z,9.668009
2023-04-16T00:27:48.015Z,9.668033
2023-04-16T00:28:48.148Z,9.667999
2023-04-16T00:29:47.996Z,9.667960
2023-04-16T00:30:48.033Z,9.667957
2023-04-16T00:31:47.998Z,9.667966
2023-04-16T00:32:48.025Z,9.667953
2023-04-16T00:33:47.959Z,9.667966
2023-04-16T00:34:47.944Z,9.667956
2023-04-16T00:36:21.527Z,9.667963
2023-04-16T00:36:47.958Z,9.667967
2023-04-16T00:37:47.960Z,9.667959
2023-04-16T00:38:47.931Z,9.667969
2023-04-16T00:39:47.919Z,9.667960
2023-04-16T00:40:47.923Z,9.667975
2023-04-16T00:41:47.893Z,9.667951
2023-04-16T00:42:48.745Z,9.668041
2023-04-16T00:43:47.878Z,9.668006
2023-04-16T00:44:47.876Z,9.668001
2023-04-16T00:45:48.648Z,9.668025
2023-04-16T00:46:47.885Z,9.667994
2023-04-16T00:47:47.912Z,9.667972
2023-04-16T00:48:47.873Z,9.667976
2023-04-16T00:49:47.815Z,9.667974
2023-04-16T00:50:47.845Z,9.667972
2023-04-16T00:51:47.825Z,9.667981
2023-04-16T00:52:48.628Z,9.668036
2023-04-16T00:53:47.821Z,9.668014
2023-04-16T00:54:47.794Z,9.668006
2023-04-16T00:55:47.793Z,9.667972
2023-04-16T00:56:47.757Z,9.667909
2023-04-16T00:57:47.768Z,9.668015
2023-04-16T00:58:47.743Z,9.668013
2023-04-16T00:59:48.815Z,9.667998
2023-04-16T01:00:47.786Z,9.667992
2023-04-16T01:01:47.781Z,9.667969
2023-04-16T01:02:47.870Z,9.667969
2023-04-16T01:03:47.798Z,9.667918
2023-04-16T01:04:47.717Z,9.667994
2023-04-16T01:05:47.764Z,9.667955
2023-04-16T01:06:47.723Z,9.667995
2023-04-16T01:07:47.762Z,9.667977
2023-04-16T01:08:47.697Z,9.667918
2023-04-16T01:09:47.704Z,9.667987
2023-04-16T01:10:47.672Z,9.668018
2023-04-16T01:11:47.657Z,9.667949
2023-04-16T01:12:47.672Z,9.668000
2023-04-16T01:13:47.637Z,9.667957
2023-04-16T01:14:47.647Z,9.667984
2023-04-16T01:15:47.676Z,9.667929
2023-04-16T01:16:47.644Z,9.668115
2023-04-16T01:17:47.643Z,9.668035
2023-04-16T01:18:47.598Z,9.667996
2023-04-16T01:19:47.630Z,9.667979
2023-04-16T01:20:47.598Z,9.668021
2023-04-16T01:21:47.620Z,9.667986
2023-04-16T01:22:47.566Z,9.667970
2023-04-16T01:23:47.587Z,9.668038
2023-04-16T01:24:47.550Z,9.667995
2023-04-16T01:25:47.578Z,9.667978
2023-04-16T01:26:47.560Z,9.667987
2023-04-16T01:27:47.556Z,9.667982
2023-04-16T01:28:47.529Z,9.667955
2023-04-16T01:29:47.537Z,9.668000
2023-04-16T01:30:47.514Z,9.667987
2023-04-16T01:31:47.616Z,9.668010
2023-04-16T01:32:47.573Z,9.668003
2023-04-16T01:33:47.525Z,9.667988
2023-04-16T01:34:48.545Z,9.667999
2023-04-16T01:35:47.536Z,9.667994
2023-04-16T01:36:47.481Z,9.668026
2023-04-16T01:37:47.586Z,9.668015
2023-04-16T01:38:47.546Z,9.668003
2023-04-16T01:39:47.440Z,9.667969
2023-04-16T01:40:47.436Z,9.668036
2023-04-16T01:41:47.438Z,9.667988
2023-04-16T01:42:47.439Z,9.668005
2023-04-16T01:43:47.483Z,9.667996
2023-04-16T01:44:47.427Z,9.667996
2023-04-16T01:45:47.423Z,9.667985
2023-04-16T01:46:47.416Z,9.668034
2023-04-16T01:47:47.495Z,9.668024
2023-04-16T01:48:47.391Z,9.667975
2023-04-16T01:49:47.381Z,9.668019
2023-04-16T01:50:47.393Z,9.667966
2023-04-16T01:51:47.368Z,9.668012
2023-04-16T01:52:47.361Z,9.668001
2023-04-16T01:53:47.370Z,9.667977
2023-04-16T01:54:47.333Z,9.667999
2023-04-16T01:55:47.360Z,9.667966
2023-04-16T01:56:47.349Z,9.667932
2023-04-16T01:57:47.329Z,9.667973
2023-04-16T01:58:47.301Z,9.667971
2023-04-16T01:59:47.309Z,9.668011
2023-04-16T02:00:47.342Z,9.667946
2023-04-16T02:01:47.335Z,9.667962
2023-04-16T02:02:47.498Z,9.667939
2023-04-16T02:03:47.483Z,9.667891
2023-04-16T02:04:47.308Z,9.667898
2023-04-16T02:05:47.312Z,9.667843
2023-04-16T02:06:47.233Z,9.667791
2023-04-16T02:07:47.237Z,9.667815
2023-04-16T02:08:47.232Z,9.667722
2023-04-16T02:09:47.266Z,9.667670
2023-04-16T02:10:47.248Z,9.667768
2023-04-16T02:11:47.237Z,9.667645
2023-04-16T02:12:47.194Z,9.667701
2023-04-16T02:13:47.229Z,9.667686
2023-04-16T02:14:47.196Z,9.667822
2023-04-16T02:15:47.214Z,9.667817
2023-04-16T02:16:47.298Z,9.667995
2023-04-16T02:17:47.200Z,9.667940
2023-04-16T02:18:47.255Z,9.667993
2023-04-16T02:19:47.245Z,9.668002
2023-04-16T02:20:47.171Z,9.667976
2023-04-16T02:21:47.151Z,9.667983
2023-04-16T02:22:47.129Z,9.667957
2023-04-16T02:23:47.116Z,9.667995
2023-04-16T02:24:47.118Z,9.667981
2023-04-16T02:25:47.129Z,9.667977
2023-04-16T02:26:47.128Z,9.667974
2023-04-16T02:27:47.091Z,9.667970
2023-04-16T02:28:47.202Z,9.667982
2023-04-16T02:29:47.089Z,9.667977
2023-04-16T02:30:47.077Z,9.667965
2023-04-16T02:31:47.129Z,9.667986
2023-04-16T02:32:47.116Z,9.667994
2023-04-16T02:33:47.027Z,9.667997
2023-04-16T02:34:47.085Z,9.667978
2023-04-16T02:35:47.053Z,9.667974
2023-04-16T02:36:47.040Z,9.667973
2023-04-16T02:37:47.094Z,9.667945
2023-04-16T02:38:47.019Z,9.667944
2023-04-16T02:39:47.044Z,9.667935
2023-04-16T02:40:46.999Z,9.667925
2023-04-16T02:41:46.981Z,9.667986
2023-04-16T02:42:47.046Z,9.667979
2023-04-16T02:43:47.023Z,9.667966
2023-04-16T02:44:46.969Z,9.667998
2023-04-16T02:45:47.008Z,9.667934
2023-04-16T02:46:47.042Z,9.667946
2023-04-16T02:47:47.001Z,9.667937
2023-04-16T02:48:46.927Z,9.667935
2023-04-16T02:49:46.933Z,9.667923
2023-04-16T02:50:46.909Z,9.667918
2023-04-16T02:51:46.887Z,9.667913
2023-04-16T02:52:46.897Z,9.667876
2023-04-16T02:53:46.896Z,9.667922
2023-04-16T02:54:46.922Z,9.667953
2023-04-16T02:55:46.877Z,9.667922
2023-04-16T02:56:46.872Z,9.667927
2023-04-16T02:57:46.858Z,9.667984
2023-04-16T02:58:46.855Z,9.667961
2023-04-16T02:59:46.957Z,9.667909
2023-04-16T03:00:46.843Z,9.667896
2023-04-16T03:01:46.957Z,9.667918
2023-04-16T03:02:46.924Z,9.667912
2023-04-16T03:03:46.835Z,9.667933
2023-04-16T03:04:46.839Z,9.667929
2023-04-16T03:05:46.799Z,9.667921
2023-04-16T03:06:46.768Z,9.667896
2023-04-16T03:07:47.788Z,9.667933
2023-04-16T03:08:46.778Z,9.667933
2023-04-16T03:09:46.822Z,9.667921
2023-04-16T03:10:46.757Z,9.667925
2023-04-16T03:11:46.777Z,9.667939
2023-04-16T03:12:46.740Z,9.667939
2023-04-16T03:13:46.722Z,9.667962
2023-04-16T03:14:47.722Z,9.667938
2023-04-16T03:15:46.755Z,9.668032
2023-04-16T03:16:46.726Z,9.667951
2023-04-16T03:17:46.777Z,9.667989
2023-04-16T03:18:46.713Z,9.667997
2023-04-16T03:19:46.701Z,9.667976
2023-04-16T03:20:46.705Z,9.667974
2023-04-16T03:21:46.688Z,9.667974
2023-04-16T03:22:46.679Z,9.667965
2023-04-16T03:23:46.643Z,9.667988
2023-04-16T03:24:46.657Z,9.668000
2023-04-16T03:25:46.706Z,9.667990
2023-04-16T03:26:46.645Z,9.668017
2023-04-16T03:28:18.582Z,9.667973
2023-04-16T03:28:47.477Z,9.667972
2023-04-16T03:29:47.642Z,9.668005
2023-04-16T03:30:46.884Z,9.667961
2023-04-16T03:31:46.600Z,9.667972
2023-04-16T03:32:46.658Z,9.668007
2023-04-16T03:33:46.566Z,9.667979
2023-04-16T03:34:47.592Z,9.668005
2023-04-16T03:35:46.556Z,9.668017
2023-04-16T03:36:46.573Z,9.668008
2023-04-16T03:37:46.575Z,9.668031
2023-04-16T03:38:46.557Z,9.668044
2023-04-16T03:39:46.548Z,9.668002
2023-04-16T03:40:46.523Z,9.667993
2023-04-16T03:41:46.514Z,9.667969
2023-04-16T03:42:46.511Z,9.667977
2023-04-16T03:43:46.587Z,9.667970
2023-04-16T03:44:46.507Z,9.667986
2023-04-16T03:45:46.527Z,9.667987
2023-04-16T03:46:46.528Z,9.667975
2023-04-16T04:07:04.338Z,9.668058
2023-04-16T04:08:04.310Z,9.667994
2023-04-16T04:09:04.329Z,9.668049
2023-04-16T04:10:04.335Z,9.667948
2023-04-16T04:11:04.295Z,9.667892
2023-04-16T04:12:04.280Z,9.667899
2023-04-16T04:13:04.243Z,9.667964
2023-04-16T04:14:04.246Z,9.667998
2023-04-16T04:15:04.247Z,9.668094
2023-04-16T04:16:04.260Z,9.668052
2023-04-16T04:17:04.238Z,9.668045
2023-04-16T04:18:04.283Z,9.668058
2023-04-16T04:19:04.197Z,9.668007
2023-04-16T04:20:04.244Z,9.668002
2023-04-16T04:21:04.249Z,9.667944
2023-04-16T04:22:04.177Z,9.667943
2023-04-16T04:23:04.156Z,9.667945
2023-04-16T04:24:04.204Z,9.667972
2023-04-16T04:25:04.156Z,9.668020
2023-04-16T04:26:04.209Z,9.667996
2023-04-16T04:27:04.167Z,9.668024
2023-04-16T04:28:04.109Z,9.668029
2023-04-16T04:29:04.101Z,9.667989
2023-04-16T04:30:04.115Z,9.667954
2023-04-16T04:31:04.095Z,9.667955
2023-04-16T04:32:04.155Z,9.667936
2023-04-16T04:33:04.109Z,9.668019
2023-04-16T04:34:04.110Z,9.668015
2023-04-16T04:35:04.096Z,9.668019
2023-04-16T04:36:04.053Z,9.668009
2023-04-16T04:37:04.085Z,9.667957
2023-04-16T04:38:04.072Z,9.667938
2023-04-16T04:39:04.045Z,9.668048
2023-04-16T04:40:04.088Z,9.668056
2023-04-16T04:41:05.085Z,9.667994
2023-04-16T04:42:04.018Z,9.667996
2023-04-16T04:43:04.048Z,9.667994
2023-04-16T04:44:04.000Z,9.667974
2023-04-16T04:45:03.994Z,9.668068
2023-04-16T04:46:04.024Z,9.667990
2023-04-16T04:47:03.978Z,9.667963
2023-04-16T04:48:04.043Z,9.667994
2023-04-16T04:49:04.002Z,9.667985
2023-04-16T04:50:03.965Z,9.667966
2023-04-16T04:51:05.014Z,9.668055
2023-04-16T04:52:04.975Z,9.668050
2023-04-16T04:53:04.931Z,9.667993
2023-04-16T04:54:03.951Z,9.668032
2023-04-16T04:55:03.969Z,9.668023
2023-04-16T04:56:12.128Z,9.667996
2023-04-16T04:57:05.934Z,9.667997
2023-04-16T04:58:03.882Z,9.668024
2023-04-16T04:59:03.895Z,9.668035
2023-04-16T05:00:03.893Z,9.668011
2023-04-16T05:01:03.901Z,9.667999
2023-04-16T05:02:03.922Z,9.667903
2023-04-16T05:03:03.910Z,9.667948
2023-04-16T05:04:04.014Z,9.668024
2023-04-16T05:05:03.946Z,9.668023
2023-04-16T05:06:03.839Z,9.667997
2023-04-16T05:07:03.857Z,9.667996
2023-04-16T05:08:03.810Z,9.668072
2023-04-16T05:09:03.814Z,9.668070
2023-04-16T05:10:03.935Z,9.668058
2023-04-16T05:11:03.798Z,9.667988
2023-04-16T05:12:03.846Z,9.668005
2023-04-16T05:13:03.869Z,9.668043
2023-04-16T05:14:03.853Z,9.668056
2023-04-16T05:15:03.794Z,9.668023
2023-04-16T05:16:03.783Z,9.668037
2023-04-16T05:17:03.970Z,9.668055
2023-04-16T05:18:03.773Z,9.668027
2023-04-16T05:19:03.744Z,9.668027
2023-04-16T05:20:03.752Z,9.668027
2023-04-16T05:21:03.723Z,9.668024
2023-04-16T05:22:03.717Z,9.668020
2023-04-16T05:23:03.700Z,9.668040
2023-04-16T05:24:03.722Z,9.668048
2023-04-16T05:25:03.698Z,9.668012
2023-04-16T05:26:03.686Z,9.668077
2023-04-16T05:27:03.686Z,9.667999
2023-04-16T05:28:03.687Z,9.668017
2023-04-16T05:29:03.673Z,9.668036
2023-04-16T05:30:03.661Z,9.668031
2023-04-16T05:31:03.731Z,9.668056
2023-04-16T05:32:03.651Z,9.668038
2023-04-16T05:33:03.648Z,9.668030
2023-04-16T05:34:03.610Z,9.667996
2023-04-16T05:35:03.616Z,9.668066
2023-04-16T05:36:03.615Z,9.668063
2023-04-16T05:37:03.608Z,9.668086
2023-04-16T05:38:03.595Z,9.668047
2023-04-16T05:39:03.558Z,9.668079
2023-04-16T05:40:03.576Z,9.668042
2023-04-16T05:41:03.589Z,9.668028
2023-04-16T05:42:03.575Z,9.668050
2023-04-16T05:43:03.594Z,9.668054
2023-04-16T05:44:03.552Z,9.668061
2023-04-16T05:45:03.542Z,9.668047
2023-04-16T05:46:03.540Z,9.668069
2023-04-16T05:47:03.528Z,9.668097
2023-04-16T05:48:03.509Z,9.667998
2023-04-16T05:49:03.485Z,9.668027
2023-04-16T05:50:03.477Z,9.668095
2023-04-16T05:51:03.492Z,9.668145
2023-04-16T05:52:03.468Z,9.668134
2023-04-16T05:53:03.482Z,9.668093
2023-04-16T05:54:03.542Z,9.668082
2023-04-16T05:55:04.517Z,9.668110
2023-04-16T05:56:03.436Z,9.668101
2023-04-16T05:57:03.477Z,9.668084
2023-04-16T05:58:03.462Z,9.668087
2023-04-16T05:59:03.431Z,9.668121
2023-04-16T06:00:03.403Z,9.668094
2023-04-16T06:01:03.400Z,9.668110
2023-04-16T06:02:03.414Z,9.668057
2023-04-16T06:03:03.515Z,9.668070
2023-04-16T06:04:04.587Z,9.668098
2023-04-16T06:05:03.443Z,9.668103
2023-04-16T06:06:03.385Z,9.668082
2023-04-16T06:07:03.371Z,9.668139
2023-04-16T06:08:03.348Z,9.668117
2023-04-16T06:09:03.354Z,9.668137
2023-04-16T06:10:03.359Z,9.668146
2023-04-16T06:11:03.713Z,9.668124
2023-04-16T06:12:03.338Z,9.668142
2023-04-16T06:13:03.302Z,9.668079
2023-04-16T06:14:03.323Z,9.668066
2023-04-16T06:15:03.411Z,9.668108
2023-04-16T06:16:03.342Z,9.668074
2023-04-16T06:17:03.937Z,9.668092
2023-04-16T06:18:03.331Z,9.668112
2023-04-16T06:19:35.851Z,9.668088
2023-04-16T06:23:29.981Z,9.668016
2023-04-16T06:24:30.905Z,9.668094
2023-04-16T06:25:30.927Z,9.668138
2023-04-16T06:26:29.909Z,9.668169
2023-04-16T06:27:29.908Z,9.668105
2023-04-16T06:28:29.919Z,9.668105
2023-04-16T06:29:40.599Z,9.668070
2023-04-16T06:30:32.755Z,9.668087
2023-04-16T06:31:29.940Z,9.668079
2023-04-16T06:32:29.892Z,9.668105
2023-04-16T06:33:29.847Z,9.668124
2023-04-16T06:34:29.852Z,9.668100
2023-04-16T06:35:29.943Z,9.668099
2023-04-16T06:36:29.845Z,9.668175
2023-04-16T06:37:29.826Z,9.668101
2023-04-16T06:38:29.842Z,9.668088
2023-04-16T06:39:29.834Z,9.668097
2023-04-16T06:40:29.839Z,9.668078
2023-04-16T06:41:29.813Z,9.668062
2023-04-16T06:42:29.828Z,9.668066
2023-04-16T06:43:29.811Z,9.668086
2023-04-16T06:44:29.862Z,9.668162
2023-04-16T06:45:29.781Z,9.668046
2023-04-16T06:46:29.980Z,9.668092
2023-04-16T06:47:29.846Z,9.668150
2023-04-16T06:48:29.778Z,9.668167
2023-04-16T06:49:29.731Z,9.668098
2023-04-16T06:50:29.736Z,9.668045
2023-04-16T06:51:29.733Z,9.668051
2023-04-16T06:52:29.731Z,9.668024
2023-04-16T06:53:29.728Z,9.668063
2023-04-16T06:54:29.722Z,9.667975
2023-04-16T06:55:29.705Z,9.668030
2023-04-16T06:56:29.701Z,9.668042
2023-04-16T06:57:29.750Z,9.668014
2023-04-16T06:58:29.722Z,9.668044
2023-04-16T06:59:29.684Z,9.668026
2023-04-16T07:00:29.685Z,9.668003
2023-04-16T07:01:29.714Z,9.668110
2023-04-16T07:02:29.751Z,9.668049
2023-04-16T07:03:29.792Z,9.668015
2023-04-16T07:04:29.657Z,9.667977
2023-04-16T07:05:29.632Z,9.667952
2023-04-16T07:06:29.674Z,9.667972
2023-04-16T07:07:29.592Z,9.668077
2023-04-16T07:08:29.635Z,9.668049
2023-04-16T07:09:29.590Z,9.668057
2023-04-16T07:10:29.623Z,9.668007
2023-04-16T07:11:29.588Z,9.668021
2023-04-16T07:12:29.567Z,9.668024
2023-04-16T07:13:29.577Z,9.668001
2023-04-16T07:14:29.566Z,9.668065
2023-04-16T07:15:29.569Z,9.668035
2023-04-16T07:16:29.647Z,9.668012
2023-04-16T07:17:29.570Z,9.668040
2023-04-16T07:18:29.537Z,9.668011
2023-04-16T07:19:29.530Z,9.668029
2023-04-16T07:20:29.505Z,9.668067
2023-04-16T07:21:29.497Z,9.668136
2023-04-16T07:22:29.514Z,9.668155
2023-04-16T07:23:29.488Z,9.668015
2023-04-16T07:24:29.518Z,9.668019
2023-04-16T07:25:29.476Z,9.667997
2023-04-16T07:26:29.488Z,9.668118
2023-04-16T07:27:30.479Z,9.668105
2023-04-16T07:28:29.449Z,9.668023
2023-04-16T07:29:29.461Z,9.667968
2023-04-16T07:30:29.432Z,9.667933
2023-04-16T07:31:29.497Z,9.668008
2023-04-16T07:32:29.432Z,9.668037
2023-04-16T07:33:29.410Z,9.667983
2023-04-16T07:34:29.454Z,9.667979
2023-04-16T07:35:29.421Z,9.667972
2023-04-16T07:36:29.414Z,9.667987
2023-04-16T07:37:29.394Z,9.667987
2023-04-16T07:38:29.391Z,9.668002
2023-04-16T07:39:29.386Z,9.668015
2023-04-16T07:40:29.344Z,9.667983
2023-04-16T07:41:29.370Z,9.667958
2023-04-16T07:42:29.350Z,9.667965
2023-04-16T07:43:29.326Z,9.667971
2023-04-16T07:44:29.321Z,9.668027
2023-04-16T07:45:29.340Z,9.668040
2023-04-16T07:46:36.232Z,9.668003
2023-04-16T07:47:31.361Z,9.668016
2023-04-16T07:48:29.295Z,9.667988
2023-04-16T07:49:29.291Z,9.667997
2023-04-16T07:50:29.300Z,9.667983
2023-04-16T07:51:29.308Z,9.667933
2023-04-16T07:52:29.316Z,9.667942
2023-04-16T07:53:29.235Z,9.667998
2023-04-16T07:54:29.298Z,9.668031
2023-04-16T07:55:29.234Z,9.668014
2023-04-16T07:56:29.249Z,9.667938
2023-04-16T07:57:29.213Z,9.667990
2023-04-16T07:58:29.253Z,9.667948
2023-04-16T07:59:29.440Z,9.668002
2023-04-16T08:00:29.222Z,9.667954
2023-04-16T08:01:29.234Z,9.667972
2023-04-16T08:02:29.292Z,9.667975
2023-04-16T08:03:29.409Z,9.668029
2023-04-16T08:04:29.408Z,9.668048
2023-04-16T08:05:29.452Z,9.668025
2023-04-16T08:06:29.172Z,9.668006
2023-04-16T08:07:29.163Z,9.668007
2023-04-16T08:08:29.175Z,9.667951
2023-04-16T08:09:29.156Z,9.667956
2023-04-16T08:10:29.143Z,9.667889
2023-04-16T08:11:30.133Z,9.667983
2023-04-16T08:12:29.120Z,9.667951
2023-04-16T08:13:29.483Z,9.668009
2023-04-16T08:14:29.126Z,9.668008
2023-04-16T08:15:29.235Z,9.668000
2023-04-16T08:16:29.058Z,9.667962
2023-04-16T08:17:29.095Z,9.667969
2023-04-16T08:18:29.132Z,9.667942
2023-04-16T08:19:29.079Z,9.667980
2023-04-16T08:20:29.057Z,9.667940
2023-04-16T08:21:29.067Z,9.668042
2023-04-16T08:22:29.041Z,9.668004
2023-04-16T08:23:29.076Z,9.668013
2023-04-16T08:24:29.070Z,9.667963
2023-04-16T08:25:29.045Z,9.667946
2023-04-16T08:26:29.037Z,9.668004
2023-04-16T08:27:29.085Z,9.668035
2023-04-16T08:28:28.981Z,9.667959
2023-04-16T08:29:28.994Z,9.667957
2023-04-16T08:30:28.994Z,9.668001
2023-04-16T08:31:29.024Z,9.667986
2023-04-16T08:32:29.009Z,9.667971
2023-04-16T08:33:29.711Z,9.668010
2023-04-16T08:34:28.970Z,9.667926
2023-04-16T08:35:28.948Z,9.667974
2023-04-16T08:36:28.917Z,9.667987
2023-04-16T08:37:29.072Z,9.668082
2023-04-16T08:38:28.903Z,9.668022
2023-04-16T08:39:28.893Z,9.667969
2023-04-16T08:40:28.961Z,9.667934
2023-04-16T08:41:28.899Z,9.668001
2023-04-16T08:42:28.882Z,9.667992
2023-04-16T08:43:29.865Z,9.667965
2023-04-16T08:44:28.929Z,9.668016
2023-04-16T08:45:29.880Z,9.668047
2023-04-16T08:46:28.992Z,9.667988
2023-04-16T08:47:28.881Z,9.668007
2023-04-16T08:48:28.843Z,9.667942
2023-04-16T08:49:28.848Z,9.668020
2023-04-16T08:50:28.907Z,9.667979
2023-04-16T08:51:28.851Z,9.668010
2023-04-16T08:52:29.149Z,9.667936
2023-04-16T08:53:28.818Z,9.668053
2023-04-16T08:54:28.839Z,9.667978
2023-04-16T08:55:28.829Z,9.667979
2023-04-16T08:56:28.784Z,9.668051
2023-04-16T08:57:28.756Z,9.667967
2023-04-16T08:58:28.795Z,9.668010
2023-04-16T08:59:28.748Z,9.667966
2023-04-16T09:00:28.762Z,9.668059
2023-04-16T09:01:28.838Z,9.667995
2023-04-16T09:02:28.895Z,9.667965
2023-04-16T09:03:28.888Z,9.667968
2023-04-16T09:04:28.887Z,9.667990
2023-04-16T09:05:28.713Z,9.668020
2023-04-16T09:06:28.844Z,9.667978
2023-04-16T09:07:28.712Z,9.668028
2023-04-16T09:08:28.737Z,9.667992
2023-04-16T09:09:28.676Z,9.667992
2023-04-16T09:10:28.678Z,9.668040
2023-04-16T09:11:28.668Z,9.668061
2023-04-16T09:12:28.684Z,9.668035
2023-04-16T09:13:28.654Z,9.667992
2023-04-16T09:14:28.665Z,9.668010
2023-04-16T09:15:28.687Z,9.668011
2023-04-16T09:16:28.649Z,9.668014
2023-04-16T09:17:28.719Z,9.668026
2023-04-16T09:18:28.628Z,9.668021
2023-04-16T09:19:28.583Z,9.667971
2023-04-16T09:20:28.591Z,9.667971
2023-04-16T09:21:28.579Z,9.667960
2023-04-16T09:22:28.625Z,9.667971
2023-04-16T09:23:29.951Z,9.667977
2023-04-16T09:24:28.819Z,9.668011
2023-04-16T09:25:28.535Z,9.667992
2023-04-16T09:26:28.555Z,9.667986
2023-04-16T09:27:28.557Z,9.667997
2023-04-16T09:28:28.539Z,9.668003
2023-04-16T09:29:28.550Z,9.667994
2023-04-16T09:30:28.502Z,9.668027
2023-04-16T09:31:28.508Z,9.667984
2023-04-16T09:32:29.549Z,9.667997
2023-04-16T09:33:28.519Z,9.667988
2023-04-16T09:34:28.487Z,9.668004
2023-04-16T09:35:28.554Z,9.667912
2023-04-16T09:36:28.492Z,9.667954
2023-04-16T09:37:28.459Z,9.667994
2023-04-16T09:38:28.507Z,9.667994
2023-04-16T09:39:28.427Z,9.668001
2023-04-16T09:40:28.428Z,9.667977
2023-04-16T09:41:28.451Z,9.668005
2023-04-16T09:42:28.427Z,9.668016
2023-04-16T09:43:28.420Z,9.668019
2023-04-16T09:44:28.425Z,9.667992
2023-04-16T09:45:28.564Z,9.668047
2023-04-16T09:46:28.461Z,9.667995
2023-04-16T09:47:28.443Z,9.667987
2023-04-16T09:48:28.376Z,9.668005
2023-04-16T09:49:28.429Z,9.667965
2023-04-16T09:50:28.366Z,9.668008
2023-04-16T09:51:28.382Z,9.668015
2023-04-16T09:52:28.358Z,9.668007
2023-04-16T09:53:28.361Z,9.667963
2023-04-16T09:54:28.308Z,9.667965
2023-04-16T09:55:28.333Z,9.667960
2023-04-16T09:56:28.329Z,9.667990
2023-04-16T09:57:28.366Z,9.667996
2023-04-16T09:58:28.272Z,9.667983
2023-04-16T09:59:28.311Z,9.667957
2023-04-16T10:00:28.361Z,9.668016
2023-04-16T10:01:28.317Z,9.667954
2023-04-16T10:02:28.318Z,9.667987
2023-04-16T10:03:28.336Z,9.667933
2023-04-16T10:04:28.290Z,9.667995
2023-04-16T10:05:28.228Z,9.668012
2023-04-16T10:06:28.304Z,9.667995
2023-04-16T10:07:28.253Z,9.667990
2023-04-16T10:08:28.252Z,9.668055
2023-04-16T10:09:28.207Z,9.668026
2023-04-16T10:10:28.281Z,9.668061
2023-04-16T10:11:28.233Z,9.668064
2023-04-16T10:12:28.234Z,9.668071
2023-04-16T10:13:28.175Z,9.668080
2023-04-16T10:14:28.167Z,9.668077
2023-04-16T10:15:28.199Z,9.668129
2023-04-16T10:16:28.172Z,9.668029
2023-04-16T10:17:28.294Z,9.668041
2023-04-16T10:18:28.148Z,9.668060
2023-04-16T10:19:28.127Z,9.668029
2023-04-16T10:20:28.147Z,9.668027
2023-04-16T10:21:28.139Z,9.668013
2023-04-16T10:22:28.115Z,9.667995
2023-04-16T10:23:28.116Z,9.668060
2023-04-16T10:24:28.092Z,9.668065
2023-04-16T10:25:28.997Z,9.668033
2023-04-16T10:26:28.112Z,9.668083
2023-04-16T10:27:28.089Z,9.668028
2023-04-16T10:28:28.136Z,9.668018
2023-04-16T10:29:28.079Z,9.667994
2023-04-16T10:30:28.082Z,9.668012
2023-04-16T10:31:28.210Z,9.668020
2023-04-16T10:32:28.115Z,9.668038
2023-04-16T10:33:28.056Z,9.668023
2023-04-16T10:34:28.081Z,9.668031
2023-04-16T10:35:28.020Z,9.668013
2023-04-16T10:36:28.012Z,9.668010
2023-04-16T10:37:27.977Z,9.668079
2023-04-16T10:38:28.026Z,9.668049
2023-04-16T10:39:28.033Z,9.668027
2023-04-16T10:40:27.968Z,9.668017
2023-04-16T10:41:27.965Z,9.668017
2023-04-16T10:42:28.025Z,9.668025
2023-04-16T10:43:27.966Z,9.668022
2023-04-16T10:44:27.953Z,9.668042
2023-04-16T10:45:28.068Z,9.668026
2023-04-16T10:46:27.998Z,9.668039
2023-04-16T10:47:27.938Z,9.668011
2023-04-16T10:48:35.618Z,9.668020
2023-04-16T10:49:29.956Z,9.667992
2023-04-16T10:50:27.903Z,9.668013
2023-04-16T10:51:27.967Z,9.668037
2023-04-16T10:52:27.936Z,9.668015
2023-04-16T10:53:27.856Z,9.667969
2023-04-16T10:54:27.902Z,9.667997
2023-04-16T10:55:27.887Z,9.668036
2023-04-16T10:56:27.907Z,9.668060
2023-04-16T10:57:27.963Z,9.667937
2023-04-16T10:58:27.848Z,9.667990
2023-04-16T10:59:27.841Z,9.667912
2023-04-16T11:00:27.973Z,9.667958
2023-04-16T11:01:27.869Z,9.667952
2023-04-16T11:02:28.037Z,9.667941
2023-04-16T11:03:29.010Z,9.667972
2023-04-16T11:04:27.905Z,9.667977
2023-04-16T11:05:27.852Z,9.667971
2023-04-16T11:06:27.766Z,9.667989
2023-04-16T11:07:27.784Z,9.667976
2023-04-16T11:08:27.773Z,9.667981
2023-04-16T11:09:27.765Z,9.667964
2023-04-16T11:10:27.876Z,9.667955
2023-04-16T11:11:27.728Z,9.667974
2023-04-16T11:12:27.854Z,9.668015
2023-04-16T11:13:27.697Z,9.668000
2023-04-16T11:14:27.723Z,9.667974
2023-04-16T11:15:27.702Z,9.667926
2023-04-16T11:16:27.754Z,9.667945
2023-04-16T11:17:27.700Z,9.667941
2023-04-16T11:18:27.652Z,9.667953
2023-04-16T11:19:27.679Z,9.668002
2023-04-16T11:20:27.648Z,9.667974
2023-04-16T11:21:27.665Z,9.667982
2023-04-16T11:22:27.634Z,9.667953
2023-04-16T11:23:27.620Z,9.667985
2023-04-16T11:24:27.613Z,9.668013
2023-04-16T11:25:27.627Z,9.668009
2023-04-16T11:26:27.690Z,9.667961
2023-04-16T11:27:27.616Z,9.667994
2023-04-16T11:28:27.613Z,9.667976
2023-04-16T11:29:27.580Z,9.667981
2023-04-16T11:30:27.603Z,9.667970
2023-04-16T11:31:27.686Z,9.667944
2023-04-16T11:32:27.591Z,9.667984
2023-04-16T11:33:27.539Z,9.667996
2023-04-16T11:34:27.545Z,9.668015
2023-04-16T11:35:27.558Z,9.668011
2023-04-16T11:36:27.912Z,9.667995
2023-04-16T11:37:28.519Z,9.667965
2023-04-16T11:38:27.526Z,9.667984
2023-04-16T11:39:27.587Z,9.667991
2023-04-16T11:40:27.555Z,9.667984
2023-04-16T11:41:27.492Z,9.667947
2023-04-16T11:42:27.497Z,9.667988
2023-04-16T11:43:27.492Z,9.667979
2023-04-16T11:44:27.538Z,9.667986
2023-04-16T11:45:27.525Z,9.668002
2023-04-16T11:46:28.043Z,9.667990
2023-04-16T11:47:28.484Z,9.667983
2023-04-16T11:48:27.542Z,9.668013
2023-04-16T11:49:27.433Z,9.668022
2023-04-16T11:50:27.498Z,9.668021
2023-04-16T11:51:27.438Z,9.667964
2023-04-16T11:52:27.407Z,9.667956
2023-04-16T11:53:27.449Z,9.667957
2023-04-16T11:54:27.423Z,9.668073
2023-04-16T11:55:27.371Z,9.668019
2023-04-16T11:56:27.369Z,9.667994
2023-04-16T11:57:27.370Z,9.668049
2023-04-16T11:58:27.335Z,9.668014
2023-04-16T11:59:27.373Z,9.667967
2023-04-16T12:00:27.410Z,9.667953
2023-04-16T12:01:27.341Z,9.667943
2023-04-16T12:02:27.401Z,9.667985
2023-04-16T12:03:27.453Z,9.668054
2023-04-16T12:04:27.437Z,9.667965
2023-04-16T12:05:27.315Z,9.668002
2023-04-16T12:06:27.285Z,9.667980
2023-04-16T12:07:27.312Z,9.667974